createdAt,value
2022-07-26T00:00:18.881Z,69.20
2022-07-26T00:04:01.032Z,69.40
2022-07-26T00:07:43.019Z,69.50
2022-07-26T00:11:25.801Z,69.80
2022-07-26T00:15:10.921Z,70.10
2022-07-26T00:18:52.845Z,70.10
2022-07-26T00:22:34.908Z,70.30
2022-07-26T00:26:16.936Z,70.50
2022-07-26T00:29:58.832Z,70.60
2022-07-26T00:33:40.852Z,70.90
2022-07-26T00:37:22.753Z,71.00
2022-07-26T00:41:05.769Z,71.30
2022-07-26T00:44:47.787Z,71.40
2022-07-26T00:48:29.776Z,71.60
2022-07-26T00:52:12.832Z,71.70
2022-07-26T00:55:54.687Z,71.50
2022-07-26T00:59:36.688Z,71.40
2022-07-26T01:03:18.584Z,71.20
2022-07-26T01:07:01.000Z,71.20
2022-07-26T01:10:43.838Z,71.20
2022-07-26T01:14:26.135Z,71.00
2022-07-26T01:18:08.018Z,71.00
2022-07-26T01:21:51.607Z,71.00
2022-07-26T01:25:43.450Z,71.10
2022-07-26T01:29:35.367Z,71.10
2022-07-26T01:33:18.444Z,71.00
2022-07-26T01:37:00.551Z,71.10
2022-07-26T01:40:42.409Z,71.20
2022-07-26T01:44:24.473Z,71.20
2022-07-26T01:48:06.536Z,71.20
2022-07-26T01:51:48.423Z,70.90
2022-07-26T01:55:30.284Z,70.90
2022-07-26T01:59:12.161Z,70.80
2022-07-26T02:02:54.079Z,70.70
2022-07-26T02:06:36.019Z,70.80
2022-07-26T02:10:19.847Z,70.60
2022-07-26T02:14:03.691Z,70.50
2022-07-26T02:17:45.639Z,70.70
2022-07-26T02:21:27.464Z,70.60
2022-07-26T02:25:09.622Z,70.60
2022-07-26T02:28:54.206Z,70.60
2022-07-26T02:32:36.039Z,70.50
2022-07-26T02:36:17.864Z,70.50
2022-07-26T02:40:00.165Z,70.80
2022-07-26T02:43:42.037Z,70.80
2022-07-26T02:47:23.912Z,70.80
2022-07-26T02:51:05.866Z,71.10
2022-07-26T02:54:47.684Z,70.90
2022-07-26T02:58:29.538Z,71.10
2022-07-26T03:02:11.408Z,71.60
2022-07-26T03:05:53.319Z,71.00
2022-07-26T03:09:35.203Z,71.00
2022-07-26T03:13:17.025Z,71.10
2022-07-26T03:16:58.821Z,70.90
2022-07-26T03:20:40.690Z,70.80
2022-07-26T03:24:22.531Z,70.70
2022-07-26T03:28:04.853Z,70.70
2022-07-26T03:31:46.823Z,70.60
2022-07-26T03:35:28.610Z,70.60
2022-07-26T03:39:10.815Z,70.70
2022-07-26T03:42:52.735Z,70.90
2022-07-26T03:46:34.591Z,71.00
2022-07-26T03:50:16.530Z,71.20
2022-07-26T03:53:58.331Z,71.40
2022-07-26T03:57:40.112Z,71.60
2022-07-26T04:01:22.334Z,71.70
2022-07-26T04:05:04.482Z,72.00
2022-07-26T04:08:46.808Z,72.10
2022-07-26T04:12:28.609Z,72.20
2022-07-26T04:16:10.419Z,72.60
2022-07-26T04:19:52.208Z,72.70
2022-07-26T04:23:34.170Z,72.80
2022-07-26T04:27:15.965Z,72.90
2022-07-26T04:30:59.125Z,73.20
2022-07-26T04:34:40.948Z,73.20
2022-07-26T04:38:23.005Z,73.10
2022-07-26T04:42:04.861Z,73.20
2022-07-26T04:45:47.093Z,73.20
2022-07-26T04:49:28.961Z,73.10
2022-07-26T04:53:13.450Z,73.00
2022-07-26T04:56:55.310Z,72.90
2022-07-26T05:00:56.842Z,73.00
2022-07-26T05:04:39.269Z,72.90
2022-07-26T05:08:21.152Z,72.60
2022-07-26T05:12:03.273Z,72.50
2022-07-26T05:15:45.076Z,72.60
2022-07-26T05:19:26.938Z,72.20
2022-07-26T05:23:09.021Z,72.30
2022-07-26T05:26:53.194Z,71.90
2022-07-26T05:30:38.812Z,71.70
2022-07-26T05:34:20.744Z,71.70
2022-07-26T05:38:02.569Z,72.20
2022-07-26T05:41:44.453Z,71.20
2022-07-26T05:45:26.347Z,70.90
2022-07-26T05:49:08.252Z,71.00
2022-07-26T05:52:50.221Z,70.80
2022-07-26T05:56:32.046Z,70.90
2022-07-26T06:00:14.776Z,70.60
2022-07-26T06:03:56.657Z,70.50
2022-07-26T06:07:52.742Z,70.30
2022-07-26T06:11:35.219Z,70.20
2022-07-26T06:15:17.087Z,70.20
2022-07-26T06:18:59.080Z,70.30
2022-07-26T06:22:40.980Z,70.00
2022-07-26T06:26:23.960Z,70.10
2022-07-26T06:30:07.996Z,70.00
2022-07-26T06:33:51.420Z,70.30
2022-07-26T06:37:36.954Z,70.20
2022-07-26T06:41:19.226Z,69.80
2022-07-26T06:45:01.214Z,69.80
2022-07-26T06:48:47.255Z,69.80
2022-07-26T06:52:29.756Z,69.40
2022-07-26T06:56:13.385Z,69.00
2022-07-26T06:59:55.185Z,68.90
2022-07-26T07:03:37.208Z,68.20
2022-07-26T07:07:19.063Z,68.40
2022-07-26T07:11:00.908Z,68.40
2022-07-26T07:14:43.959Z,68.20
2022-07-26T07:18:25.890Z,68.60
2022-07-26T07:22:11.717Z,67.90
2022-07-26T07:25:54.030Z,67.40
2022-07-26T07:29:35.874Z,67.30
2022-07-26T07:33:22.799Z,66.10
2022-07-26T07:37:05.039Z,69.40
2022-07-26T07:40:51.788Z,66.90
2022-07-26T07:44:33.623Z,65.40
2022-07-26T07:48:15.490Z,64.70
2022-07-26T07:51:57.494Z,63.30
2022-07-26T07:55:41.297Z,62.30
2022-07-26T07:59:26.048Z,61.70
2022-07-26T08:03:09.408Z,59.80
2022-07-26T08:06:51.603Z,60.10
2022-07-26T08:10:33.828Z,58.90
2022-07-26T08:14:15.681Z,58.30
2022-07-26T08:17:59.749Z,59.40
2022-07-26T08:21:42.913Z,58.70
2022-07-26T08:25:24.972Z,58.70
2022-07-26T08:29:07.009Z,58.10
2022-07-26T08:32:48.833Z,57.50
2022-07-26T08:36:32.618Z,58.00
2022-07-26T08:40:15.088Z,57.60
2022-07-26T08:44:05.764Z,58.30
2022-07-26T08:48:15.069Z,57.90
2022-07-26T08:51:49.732Z,57.30
2022-07-26T08:55:44.678Z,58.20
2022-07-26T08:59:33.393Z,57.80
2022-07-26T09:03:25.811Z,57.70
2022-07-26T09:07:09.312Z,58.10
2022-07-26T09:10:51.251Z,58.30
2022-07-26T09:14:37.689Z,57.80
2022-07-26T09:18:26.976Z,56.50
2022-07-26T09:22:13.671Z,59.50
2022-07-26T09:26:04.463Z,56.80
2022-07-26T09:29:52.149Z,56.10
2022-07-26T09:33:48.914Z,54.60
2022-07-26T09:37:34.960Z,55.80
2022-07-26T09:41:29.298Z,54.60
2022-07-26T09:45:17.776Z,55.30
2022-07-26T09:49:20.246Z,55.10
2022-07-26T09:53:08.935Z,55.90
2022-07-26T09:56:52.929Z,55.70
2022-07-26T10:00:34.993Z,55.90
2022-07-26T10:04:18.207Z,55.90
2022-07-26T10:08:00.821Z,56.30
2022-07-26T10:11:58.350Z,57.10
2022-07-26T10:15:48.631Z,56.50
2022-07-26T10:19:45.641Z,54.80
2022-07-26T10:23:34.327Z,54.90
2022-07-26T10:27:37.993Z,52.90
2022-07-26T10:31:25.995Z,53.80
2022-07-26T10:35:45.065Z,52.60
2022-07-26T10:39:27.217Z,53.50
2022-07-26T10:43:38.826Z,50.60
2022-07-26T10:47:21.167Z,49.90
2022-07-26T10:51:27.395Z,47.30
2022-07-26T10:55:09.710Z,48.80
2022-07-26T10:58:51.725Z,44.30
2022-07-26T11:02:34.086Z,44.10
2022-07-26T11:06:18.967Z,45.30
2022-07-26T11:10:02.410Z,43.00
2022-07-26T11:13:44.258Z,42.80
2022-07-26T11:17:27.793Z,43.70
2022-07-26T11:21:14.598Z,42.30
2022-07-26T11:24:56.705Z,41.50
2022-07-26T11:28:59.260Z,41.50
2022-07-26T11:32:53.268Z,44.10
2022-07-26T11:36:43.696Z,42.30
2022-07-26T11:40:45.237Z,42.80
2022-07-26T11:44:28.109Z,44.50
2022-07-26T11:48:10.118Z,43.90
2022-07-26T11:51:55.874Z,43.50
2022-07-26T11:55:38.098Z,45.00
2022-07-26T11:59:20.205Z,44.70
2022-07-26T12:03:02.117Z,45.40
2022-07-26T12:06:45.796Z,44.50
2022-07-26T12:10:28.357Z,44.00
2022-07-26T12:14:13.738Z,43.30
2022-07-26T12:18:00.371Z,43.50
2022-07-26T12:21:45.015Z,45.00
2022-07-26T12:25:28.501Z,44.90
2022-07-26T12:29:25.618Z,45.10
2022-07-26T12:33:07.443Z,45.90
2022-07-26T12:36:49.320Z,46.30
2022-07-26T12:40:41.622Z,46.90
2022-07-26T12:44:23.573Z,47.60
2022-07-26T12:48:12.636Z,47.60
2022-07-26T12:51:54.494Z,47.70
2022-07-26T12:55:37.625Z,47.60
2022-07-26T12:59:19.855Z,47.30
2022-07-26T13:03:01.699Z,47.70
2022-07-26T13:06:43.506Z,47.20
2022-07-26T13:10:34.748Z,47.30
2022-07-26T13:14:17.331Z,46.90
2022-07-26T13:17:59.754Z,46.90
2022-07-26T13:21:41.716Z,46.60
2022-07-26T13:25:23.553Z,46.30
2022-07-26T13:29:06.856Z,46.50
2022-07-26T13:32:48.739Z,46.10
2022-07-26T13:36:30.625Z,46.60
2022-07-26T13:40:12.620Z,46.30
2022-07-26T13:43:55.752Z,45.70
2022-07-26T13:47:37.647Z,46.40
2022-07-26T13:51:19.543Z,46.00
2022-07-26T13:55:01.398Z,46.80
2022-07-26T13:58:43.430Z,46.20
2022-07-26T14:02:25.703Z,45.70
2022-07-26T14:06:07.608Z,45.70
2022-07-26T14:09:49.532Z,44.80
2022-07-26T14:13:31.482Z,44.70
2022-07-26T14:17:13.553Z,43.80
2022-07-26T14:20:55.356Z,43.80
2022-07-26T14:24:37.204Z,44.50
2022-07-26T14:28:19.044Z,44.20
2022-07-26T14:32:02.026Z,43.90
2022-07-26T14:35:46.871Z,45.00
2022-07-26T14:39:28.715Z,43.90
2022-07-26T14:43:10.540Z,43.40
2022-07-26T14:46:53.503Z,43.00
2022-07-26T14:51:09.440Z,44.50
2022-07-26T14:54:51.706Z,42.90
2022-07-26T14:58:33.779Z,42.80
2022-07-26T15:02:15.874Z,42.40
2022-07-26T15:05:58.091Z,43.20
2022-07-26T15:09:39.999Z,43.40
2022-07-26T15:13:21.975Z,43.40
2022-07-26T15:17:03.893Z,42.90
2022-07-26T15:20:45.737Z,43.60
2022-07-26T15:24:29.101Z,44.00
2022-07-26T15:28:11.044Z,43.90
2022-07-26T15:31:53.877Z,42.90
2022-07-26T15:35:37.141Z,43.60
2022-07-26T15:39:19.157Z,43.10
2022-07-26T15:43:01.102Z,44.30
2022-07-26T15:46:45.764Z,44.10
2022-07-26T15:50:29.819Z,44.20
2022-07-26T15:54:14.346Z,45.30
2022-07-26T15:57:57.140Z,45.70
2022-07-26T16:01:39.266Z,45.40
2022-07-26T16:05:21.240Z,46.40
2022-07-26T16:09:16.742Z,46.50
2022-07-26T16:13:01.444Z,45.10
2022-07-26T16:16:43.653Z,45.10
2022-07-26T16:20:25.550Z,45.70
2022-07-26T16:24:08.796Z,45.60
2022-07-26T16:27:53.040Z,46.00
2022-07-26T16:31:36.053Z,45.90
2022-07-26T16:35:17.979Z,46.80
2022-07-26T16:39:00.097Z,47.50
2022-07-26T16:42:41.953Z,46.10
2022-07-26T16:46:24.390Z,45.80
2022-07-26T16:50:06.885Z,45.00
2022-07-26T16:53:51.417Z,45.10
2022-07-26T16:57:33.269Z,45.40
2022-07-26T17:01:15.970Z,46.20
2022-07-26T17:04:58.762Z,44.90
2022-07-26T17:08:41.712Z,44.80
2022-07-26T17:12:24.040Z,45.50
2022-07-26T17:16:05.899Z,46.20
2022-07-26T17:19:47.836Z,45.30
2022-07-26T17:23:29.753Z,45.20
2022-07-26T17:27:11.581Z,45.80
2022-07-26T17:30:53.412Z,46.00
2022-07-26T17:34:35.347Z,45.10
2022-07-26T17:38:17.319Z,45.30
2022-07-26T17:41:59.286Z,45.50
2022-07-26T17:45:41.661Z,45.50
2022-07-26T17:49:25.217Z,47.80
2022-07-26T17:53:07.127Z,45.90
2022-07-26T17:56:49.088Z,46.90
2022-07-26T18:00:30.984Z,46.30
2022-07-26T18:04:14.066Z,46.30
2022-07-26T18:07:55.908Z,46.10
2022-07-26T18:11:39.172Z,45.90
2022-07-26T18:15:22.639Z,45.70
2022-07-26T18:19:05.165Z,46.70
2022-07-26T18:22:50.212Z,47.00
2022-07-26T18:26:32.464Z,47.10
2022-07-26T18:30:14.351Z,46.80
2022-07-26T18:33:56.151Z,47.90
2022-07-26T18:37:38.040Z,48.00
2022-07-26T18:41:20.200Z,47.80
2022-07-26T18:45:02.393Z,47.70
2022-07-26T18:48:44.346Z,48.10
2022-07-26T18:52:28.650Z,48.20
2022-07-26T18:56:13.666Z,48.60
2022-07-26T18:59:55.499Z,48.80
2022-07-26T19:03:37.590Z,49.20
2022-07-26T19:07:19.567Z,49.30
2022-07-26T19:11:01.345Z,49.10
2022-07-26T19:14:43.229Z,49.20
2022-07-26T19:18:25.093Z,49.60
2022-07-26T19:22:06.952Z,50.00
2022-07-26T19:25:48.987Z,50.40
2022-07-26T19:29:30.832Z,50.60
2022-07-26T19:33:12.721Z,51.50
2022-07-26T19:36:54.605Z,51.20
2022-07-26T19:40:36.456Z,51.80
2022-07-26T19:44:18.388Z,52.30
2022-07-26T19:48:00.271Z,52.10
2022-07-26T19:51:42.356Z,52.60
2022-07-26T19:55:24.214Z,53.00
2022-07-26T19:59:06.054Z,53.10
2022-07-26T20:02:48.193Z,53.60
2022-07-26T20:06:30.168Z,53.80
2022-07-26T20:10:12.008Z,54.20
2022-07-26T20:13:55.284Z,54.50
2022-07-26T20:17:39.662Z,54.80
2022-07-26T20:21:22.244Z,55.20
2022-07-26T20:25:06.096Z,55.40
2022-07-26T20:28:49.074Z,55.90
2022-07-26T20:32:32.163Z,56.40
2022-07-26T20:36:14.149Z,56.60
2022-07-26T20:39:55.951Z,56.80
2022-07-26T20:43:38.616Z,57.30
2022-07-26T20:47:21.881Z,57.40
2022-07-26T20:51:13.601Z,57.60
2022-07-26T20:54:55.765Z,58.00
2022-07-26T20:58:37.790Z,58.50
2022-07-26T21:02:19.923Z,58.80
2022-07-26T21:06:01.793Z,59.20
2022-07-26T21:09:43.684Z,59.60
2022-07-26T21:13:25.661Z,59.80
2022-07-26T21:17:11.673Z,60.40
2022-07-26T21:20:54.057Z,60.60
2022-07-26T21:24:36.061Z,60.60
2022-07-26T21:28:17.991Z,61.00
2022-07-26T21:31:59.945Z,61.20
2022-07-26T21:35:42.683Z,61.50
2022-07-26T21:39:24.489Z,61.60
2022-07-26T21:43:06.344Z,62.00
2022-07-26T21:46:52.846Z,62.40
2022-07-26T21:50:36.275Z,62.70
2022-07-26T21:54:18.109Z,63.00
2022-07-26T21:57:59.964Z,63.20
2022-07-26T22:01:42.134Z,63.60
2022-07-26T22:05:38.143Z,63.90
2022-07-26T22:09:20.028Z,64.30
2022-07-26T22:13:06.142Z,64.40
2022-07-26T22:16:49.237Z,64.80
2022-07-26T22:20:32.942Z,64.90
2022-07-26T22:24:14.774Z,65.10
2022-07-26T22:27:57.522Z,65.40
2022-07-26T22:31:39.444Z,65.80
2022-07-26T22:35:21.370Z,65.90
2022-07-26T22:39:03.333Z,66.20
2022-07-26T22:42:46.477Z,66.20
2022-07-26T22:46:29.593Z,66.30
2022-07-26T22:50:11.952Z,66.40
2022-07-26T22:53:53.852Z,66.50
2022-07-26T22:57:36.120Z,66.60
2022-07-26T23:01:18.068Z,67.00
2022-07-26T23:04:59.998Z,67.20
2022-07-26T23:08:47.539Z,67.10
2022-07-26T23:12:29.820Z,67.10
2022-07-26T23:16:11.678Z,67.20
2022-07-26T23:19:53.885Z,67.20
2022-07-26T23:23:35.787Z,67.40
2022-07-26T23:27:20.201Z,67.60
2022-07-26T23:31:02.266Z,67.90
2022-07-26T23:34:44.230Z,68.50
2022-07-26T23:38:26.237Z,68.60
2022-07-26T23:42:08.176Z,69.10
2022-07-26T23:45:50.026Z,68.80
2022-07-26T23:49:31.911Z,69.00
2022-07-26T23:53:13.772Z,68.80
2022-07-26T23:56:55.669Z,68.80
